Terminal Aerodrome Forecast
Issued by NWS

Home | Current Version | Previous Version | Text Only | Print | Product List | Glossary On
Versions: 1 2 3 4 5 6 7 8 9 10 11 12 13 14 15 16 17 18
000
FTUS46 KOTX 190547 CCA
TAFMWH
TAF COR
KMWH 190547Z 1906/2006 19015G23KT P6SM SCT080 OVC150 WS020/22045KT
     FM190800 19014KT P6SM OVC100
     FM191500 19012KT P6SM -RA OVC060
     FM191900 20014KT P6SM -RA OVC050
     FM200300 18009KT P6SM -RA SCT030 OVC050=

USA.gov is the U.S. government's official web portal to all federal, state and local government web resources and services.